createdAt,value
2018-11-01T00:01:05.479Z,49.40
2018-11-01T00:03:34.213Z,49.40
2018-11-01T00:06:02.691Z,49.50
2018-11-01T00:08:31.403Z,49.50
2018-11-01T00:10:59.900Z,49.50
2018-11-01T00:13:28.546Z,49.50
2018-11-01T00:15:57.012Z,49.40
2018-11-01T00:18:25.441Z,49.50
2018-11-01T00:20:53.942Z,49.50
2018-11-01T00:23:22.457Z,49.40
2018-11-01T00:25:51.016Z,49.40
2018-11-01T00:28:19.570Z,49.50
2018-11-01T00:30:48.027Z,49.50
2018-11-01T00:33:16.534Z,49.50
2018-11-01T00:35:45.997Z,49.50
2018-11-01T00:38:14.663Z,49.50
2018-11-01T00:40:43.346Z,49.50
2018-11-01T00:43:11.794Z,49.50
2018-11-01T00:45:40.841Z,49.50
2018-11-01T00:48:09.370Z,49.50
2018-11-01T00:50:38.344Z,49.50
2018-11-01T00:53:06.807Z,49.80
2018-11-01T00:55:35.249Z,49.50
2018-11-01T00:58:03.783Z,49.60
2018-11-01T01:00:32.496Z,49.50
2018-11-01T01:03:01.471Z,49.50
2018-11-01T01:05:30.082Z,49.50
2018-11-01T01:07:58.785Z,49.50
2018-11-01T01:10:27.423Z,49.50
2018-11-01T01:12:56.001Z,49.50
2018-11-01T01:15:24.468Z,49.50
2018-11-01T01:17:52.974Z,49.50
2018-11-01T01:20:21.397Z,49.50
2018-11-01T01:22:50.138Z,49.50
2018-11-01T01:25:19.251Z,49.50
2018-11-01T01:27:48.098Z,49.50
2018-11-01T01:30:19.241Z,49.60
2018-11-01T01:32:48.400Z,49.60
2018-11-01T01:35:17.478Z,49.60
2018-11-01T01:37:46.451Z,49.60
2018-11-01T01:40:14.986Z,49.60
2018-11-01T01:42:50.324Z,49.60
2018-11-01T01:45:18.904Z,49.60
2018-11-01T01:47:47.448Z,49.50
2018-11-01T01:50:16.509Z,49.50
2018-11-01T01:52:45.864Z,49.60
2018-11-01T01:55:14.402Z,49.60
2018-11-01T01:57:42.995Z,49.60
2018-11-01T02:00:13.690Z,49.60
2018-11-01T02:02:44.467Z,49.60
2018-11-01T02:05:12.976Z,49.60
2018-11-01T02:07:41.492Z,49.60
2018-11-01T02:10:11.852Z,49.60
2018-11-01T02:12:40.953Z,49.60
2018-11-01T02:15:12.592Z,49.60
2018-11-01T02:17:41.890Z,49.60
2018-11-01T02:20:12.487Z,49.60
2018-11-01T02:22:41.689Z,49.60
2018-11-01T02:25:10.480Z,49.70
2018-11-01T02:27:44.379Z,49.70
2018-11-01T02:30:14.194Z,49.70
2018-11-01T02:32:43.365Z,49.70
2018-11-01T02:35:14.124Z,49.70
2018-11-01T02:37:43.125Z,49.70
2018-11-01T02:40:12.182Z,49.70
2018-11-01T02:42:41.242Z,49.70
2018-11-01T02:45:10.655Z,49.70
2018-11-01T02:47:39.831Z,49.70
2018-11-01T02:50:08.822Z,49.70
2018-11-01T02:52:37.483Z,49.60
2018-11-01T02:55:06.282Z,49.60
2018-11-01T02:57:35.022Z,49.60
2018-11-01T03:00:03.591Z,49.70
2018-11-01T03:02:32.106Z,49.70
2018-11-01T03:05:00.674Z,49.70
2018-11-01T03:07:29.294Z,49.70
2018-11-01T03:09:58.112Z,49.70
2018-11-01T03:12:26.624Z,49.70
2018-11-01T03:14:55.155Z,49.70
2018-11-01T03:17:23.658Z,49.70
2018-11-01T03:19:52.233Z,49.70
2018-11-01T03:22:20.662Z,49.70
2018-11-01T03:24:49.087Z,49.70
2018-11-01T03:27:17.526Z,49.70
2018-11-01T03:29:46.316Z,49.70
2018-11-01T03:32:14.889Z,49.90
2018-11-01T03:36:04.711Z,49.70
2018-11-01T03:38:33.528Z,49.70
2018-11-01T03:41:01.930Z,49.70
2018-11-01T03:43:30.436Z,49.70
2018-11-01T03:45:59.041Z,49.70
2018-11-01T03:48:27.489Z,49.70
2018-11-01T03:50:55.919Z,49.70
2018-11-01T03:53:24.349Z,49.70
2018-11-01T03:55:52.958Z,49.70
2018-11-01T03:58:21.544Z,49.60
2018-11-01T04:00:50.111Z,49.60
2018-11-01T04:03:18.574Z,49.60
2018-11-01T04:05:47.073Z,49.70
2018-11-01T04:08:15.551Z,49.70
2018-11-01T04:10:44.520Z,49.70
2018-11-01T04:13:12.979Z,49.70
2018-11-01T04:15:41.633Z,49.60
2018-11-01T04:18:10.092Z,49.70
2018-11-01T04:20:38.607Z,49.70
2018-11-01T04:23:07.167Z,49.60
2018-11-01T04:25:35.668Z,49.60
2018-11-01T04:28:04.318Z,49.70
2018-11-01T04:30:32.771Z,49.60
2018-11-01T04:33:01.330Z,49.60
2018-11-01T04:35:29.759Z,49.70
2018-11-01T04:37:58.232Z,49.70
2018-11-01T04:40:26.693Z,49.70
2018-11-01T04:42:55.218Z,49.70
2018-11-01T04:45:23.702Z,49.70
2018-11-01T04:47:52.191Z,49.70
2018-11-01T04:50:20.642Z,49.70
2018-11-01T04:52:49.074Z,49.70
2018-11-01T04:55:17.673Z,49.70
2018-11-01T04:57:46.213Z,49.70
2018-11-01T05:00:15.059Z,49.70
2018-11-01T05:02:44.442Z,49.50
2018-11-01T05:05:13.136Z,49.70
2018-11-01T05:07:41.598Z,49.70
2018-11-01T05:10:11.462Z,49.70
2018-11-01T05:12:40.800Z,49.70
2018-11-01T05:15:09.672Z,49.70
2018-11-01T05:17:39.370Z,49.70
2018-11-01T05:20:09.725Z,49.70
2018-11-01T05:22:38.158Z,49.70
2018-11-01T05:25:06.738Z,49.70
2018-11-01T05:27:35.346Z,49.80
2018-11-01T05:30:03.910Z,49.80
2018-11-01T05:32:32.349Z,49.60
2018-11-01T05:35:00.790Z,49.70
2018-11-01T05:37:29.240Z,49.60
2018-11-01T05:39:57.718Z,49.60
2018-11-01T05:42:26.824Z,49.70
2018-11-01T05:44:55.386Z,49.60
2018-11-01T05:47:23.897Z,49.80
2018-11-01T05:49:52.376Z,49.70
2018-11-01T05:52:20.887Z,49.70
2018-11-01T05:54:49.652Z,49.70
2018-11-01T05:57:18.098Z,49.80
2018-11-01T05:59:46.536Z,49.70
2018-11-01T06:02:17.903Z,49.70
2018-11-01T06:04:46.827Z,49.70
2018-11-01T06:07:17.041Z,49.70
2018-11-01T06:09:45.478Z,49.70
2018-11-01T06:12:14.052Z,49.70
2018-11-01T06:14:42.453Z,49.70
2018-11-01T06:17:10.895Z,49.70
2018-11-01T06:19:39.693Z,49.70
2018-11-01T06:22:08.231Z,49.70
2018-11-01T06:24:36.792Z,49.70
2018-11-01T06:27:05.213Z,49.70
2018-11-01T06:29:33.668Z,49.70
2018-11-01T06:32:02.100Z,49.70
2018-11-01T06:34:32.435Z,49.70
2018-11-01T06:37:01.206Z,49.70
2018-11-01T06:39:29.616Z,49.70
2018-11-01T06:41:58.038Z,49.70
2018-11-01T06:44:26.570Z,49.70
2018-11-01T06:46:54.966Z,49.70
2018-11-01T06:49:23.483Z,49.70
2018-11-01T06:51:51.891Z,49.70
2018-11-01T06:54:20.462Z,49.70
2018-11-01T06:56:48.890Z,49.70
2018-11-01T06:59:17.494Z,49.70
2018-11-01T07:01:45.802Z,49.70
2018-11-01T07:04:14.228Z,49.70
2018-11-01T07:06:42.683Z,49.70
2018-11-01T07:09:12.964Z,49.70
2018-11-01T07:11:42.773Z,49.70
2018-11-01T07:14:11.298Z,49.70
2018-11-01T07:16:39.966Z,49.70
2018-11-01T07:19:09.107Z,49.80
2018-11-01T07:22:14.407Z,49.80
2018-11-01T07:24:42.818Z,49.80
2018-11-01T07:27:11.232Z,49.90
2018-11-01T07:29:39.805Z,49.80
2018-11-01T07:32:08.977Z,49.80
2018-11-01T07:34:37.459Z,49.80
2018-11-01T07:37:06.383Z,49.80
2018-11-01T07:39:34.815Z,49.80
2018-11-01T07:42:03.295Z,49.80
2018-11-01T07:44:31.777Z,49.80
2018-11-01T07:47:00.268Z,49.80
2018-11-01T07:49:29.012Z,49.80
2018-11-01T07:51:57.600Z,49.70
2018-11-01T07:54:26.087Z,49.70
2018-11-01T07:56:54.502Z,49.60
2018-11-01T07:59:22.951Z,49.70
2018-11-01T08:01:51.362Z,49.60
2018-11-01T08:04:19.792Z,49.60
2018-11-01T08:06:48.187Z,49.60
2018-11-01T08:09:16.650Z,49.60
2018-11-01T08:11:45.284Z,49.60
2018-11-01T08:14:13.885Z,49.50
2018-11-01T08:16:42.354Z,49.50
2018-11-01T08:19:11.144Z,49.50
2018-11-01T08:21:40.116Z,49.50
2018-11-01T08:24:08.721Z,49.50
2018-11-01T08:26:37.360Z,49.50
2018-11-01T08:29:05.938Z,49.50
2018-11-01T08:31:34.447Z,49.50
2018-11-01T08:34:02.959Z,49.50
2018-11-01T08:36:31.498Z,49.40
2018-11-01T08:39:00.027Z,49.50
2018-11-01T08:41:28.579Z,49.50
2018-11-01T08:43:57.169Z,49.50
2018-11-01T08:46:25.603Z,49.60
2018-11-01T08:48:54.062Z,49.50
2018-11-01T08:51:22.452Z,49.50
2018-11-01T08:53:50.870Z,49.50
2018-11-01T08:56:19.292Z,49.50
2018-11-01T08:58:47.758Z,49.40
2018-11-01T09:01:16.245Z,49.50
2018-11-01T09:03:44.715Z,49.50
2018-11-01T09:06:13.266Z,49.40
2018-11-01T09:08:41.719Z,49.40
2018-11-01T09:11:10.138Z,49.40
2018-11-01T09:13:38.853Z,49.40
2018-11-01T09:16:07.356Z,49.30
2018-11-01T09:18:35.805Z,49.30
2018-11-01T09:21:04.662Z,49.40
2018-11-01T09:23:33.216Z,49.30
2018-11-01T09:26:01.679Z,49.30
2018-11-01T09:28:30.126Z,49.30
2018-11-01T09:30:58.529Z,49.30
2018-11-01T09:33:27.045Z,49.30
2018-11-01T09:35:55.732Z,49.30
2018-11-01T09:38:24.437Z,49.30
2018-11-01T09:40:52.868Z,49.30
2018-11-01T09:43:21.363Z,49.30
2018-11-01T09:45:49.868Z,49.30
2018-11-01T09:48:18.310Z,49.30
2018-11-01T09:50:46.771Z,49.30
2018-11-01T09:53:15.250Z,49.30
2018-11-01T09:55:44.287Z,49.30
2018-11-01T09:58:12.681Z,49.30
2018-11-01T10:00:41.240Z,49.30
2018-11-01T10:03:09.782Z,49.30
2018-11-01T10:05:38.515Z,49.30
2018-11-01T10:08:06.905Z,49.30
2018-11-01T10:10:35.413Z,49.30
2018-11-01T10:13:03.804Z,49.30
2018-11-01T10:15:32.373Z,49.30
2018-11-01T10:18:01.227Z,49.20
2018-11-01T10:20:29.340Z,49.20
2018-11-01T10:22:57.816Z,49.20
2018-11-01T10:25:26.434Z,49.20
2018-11-01T10:27:54.931Z,49.20
2018-11-01T10:30:23.435Z,49.20
2018-11-01T10:32:51.917Z,49.20
2018-11-01T10:35:20.408Z,49.30
2018-11-01T10:37:48.944Z,49.30
2018-11-01T10:40:18.784Z,49.30
2018-11-01T10:42:47.234Z,49.20
2018-11-01T10:45:15.682Z,49.90
2018-11-01T10:47:44.435Z,49.30
2018-11-01T10:50:16.164Z,49.20
2018-11-01T10:52:45.470Z,49.30
2018-11-01T10:55:14.886Z,49.20
2018-11-01T10:57:43.420Z,49.20
2018-11-01T11:00:17.925Z,49.20
2018-11-01T11:02:47.808Z,49.20
2018-11-01T11:05:17.411Z,49.20
2018-11-01T11:07:46.350Z,49.20
2018-11-01T11:10:14.938Z,49.20
2018-11-01T11:12:43.422Z,49.20
2018-11-01T11:15:11.866Z,49.20
2018-11-01T11:17:41.182Z,49.30
2018-11-01T11:20:11.044Z,49.30
2018-11-01T11:22:40.047Z,49.30
2018-11-01T11:25:10.169Z,49.30
2018-11-01T11:27:39.119Z,49.30
2018-11-01T11:30:08.727Z,49.30
2018-11-01T11:32:37.380Z,49.30
2018-11-01T11:35:06.332Z,49.70
2018-11-01T11:37:35.203Z,49.20
2018-11-01T11:40:03.635Z,49.30
2018-11-01T11:42:32.088Z,49.30
2018-11-01T11:45:00.639Z,49.30
2018-11-01T11:47:29.144Z,49.30
2018-11-01T11:49:57.982Z,49.20
2018-11-01T11:52:26.534Z,49.30
2018-11-01T11:54:55.022Z,49.20
2018-11-01T11:57:23.481Z,49.20
2018-11-01T11:59:52.019Z,49.30
2018-11-01T12:02:20.537Z,49.20
2018-11-01T12:04:48.932Z,49.20
2018-11-01T12:07:17.549Z,49.30
2018-11-01T12:09:46.080Z,49.30
2018-11-01T12:12:14.584Z,49.30
2018-11-01T12:14:43.256Z,49.20
2018-11-01T12:17:11.900Z,49.30
2018-11-01T12:19:40.409Z,49.30
2018-11-01T12:22:08.907Z,49.30
2018-11-01T12:24:37.532Z,49.30
2018-11-01T12:27:06.129Z,49.30
2018-11-01T12:29:34.618Z,49.20
2018-11-01T12:32:03.049Z,49.30
2018-11-01T12:34:31.617Z,49.30
2018-11-01T12:37:00.265Z,49.30
2018-11-01T12:39:28.875Z,49.30
2018-11-01T12:41:57.339Z,49.30
2018-11-01T12:44:25.840Z,49.20
2018-11-01T12:46:54.383Z,49.20
2018-11-01T12:49:22.889Z,49.20
2018-11-01T12:51:51.361Z,49.20
2018-11-01T12:54:19.848Z,49.20
2018-11-01T12:56:48.345Z,49.20
2018-11-01T12:59:16.912Z,49.20
2018-11-01T13:01:45.476Z,49.20
2018-11-01T13:04:14.062Z,49.20
2018-11-01T13:06:42.519Z,49.10
2018-11-01T13:09:12.894Z,49.10
2018-11-01T13:11:41.605Z,49.20
2018-11-01T13:14:10.231Z,49.10
2018-11-01T13:16:39.862Z,49.10
2018-11-01T13:19:08.462Z,49.10
2018-11-01T13:21:36.938Z,49.10
2018-11-01T13:24:05.902Z,49.10
2018-11-01T13:26:35.204Z,49.10
2018-11-01T13:29:05.308Z,49.10
2018-11-01T13:31:34.045Z,49.00
2018-11-01T13:34:02.875Z,49.10
2018-11-01T13:36:31.426Z,49.10
2018-11-01T13:38:59.926Z,49.20
2018-11-01T13:41:28.407Z,49.20
2018-11-01T13:43:57.101Z,49.20
2018-11-01T13:46:25.550Z,49.10
2018-11-01T13:48:54.287Z,49.20
2018-11-01T13:51:22.888Z,49.20
2018-11-01T13:53:51.639Z,49.20
2018-11-01T13:56:20.266Z,49.20
2018-11-01T13:58:48.751Z,49.20
2018-11-01T14:01:17.642Z,50.00
2018-11-01T14:03:46.906Z,49.30
2018-11-01T14:06:15.950Z,49.30
2018-11-01T14:08:44.669Z,49.40
2018-11-01T14:11:14.077Z,49.30
2018-11-01T14:13:42.631Z,49.30
2018-11-01T14:16:11.324Z,49.40
2018-11-01T14:18:40.622Z,49.40
2018-11-01T14:21:09.165Z,49.30
2018-11-01T14:23:38.027Z,49.40
2018-11-01T14:26:06.740Z,49.40
2018-11-01T14:28:35.262Z,49.40
2018-11-01T14:31:03.772Z,49.40
2018-11-01T14:33:32.192Z,49.50
2018-11-01T14:36:00.761Z,49.50
2018-11-01T14:38:29.420Z,49.50
2018-11-01T14:40:59.475Z,49.50
2018-11-01T14:43:30.292Z,49.50
2018-11-01T14:46:00.024Z,49.60
2018-11-01T14:48:28.580Z,49.60
2018-11-01T14:50:57.066Z,49.60
2018-11-01T14:53:26.369Z,49.50
2018-11-01T14:55:55.312Z,49.60
2018-11-01T14:58:23.972Z,49.50
2018-11-01T15:00:51.322Z,49.50
2018-11-01T15:03:20.061Z,49.60
2018-11-01T15:05:48.561Z,49.60
2018-11-01T15:08:17.259Z,49.60
2018-11-01T15:10:45.818Z,49.60
2018-11-01T15:13:14.335Z,50.20
2018-11-01T15:15:42.781Z,49.70
2018-11-01T15:18:11.269Z,49.70
2018-11-01T15:20:39.932Z,49.60
2018-11-01T15:23:08.892Z,49.60
2018-11-01T15:25:37.346Z,49.60
2018-11-01T15:28:05.861Z,49.60
2018-11-01T15:30:34.298Z,49.60
2018-11-01T15:33:03.713Z,49.60
2018-11-01T15:35:32.403Z,49.60
2018-11-01T15:38:01.014Z,49.60
2018-11-01T15:40:29.777Z,49.60
2018-11-01T15:42:58.573Z,49.60
2018-11-01T15:45:27.227Z,49.60
2018-11-01T15:47:55.836Z,49.60
2018-11-01T15:50:24.488Z,50.20
2018-11-01T15:52:53.246Z,49.60
2018-11-01T15:55:21.786Z,49.60
2018-11-01T15:57:50.439Z,49.60
2018-11-01T16:00:19.106Z,49.60
2018-11-01T16:02:47.930Z,49.60
2018-11-01T16:05:16.823Z,49.60
2018-11-01T16:07:45.806Z,49.60
2018-11-01T16:10:14.851Z,49.60
2018-11-01T16:12:43.487Z,49.60
2018-11-01T16:15:13.888Z,49.60
2018-11-01T16:17:42.504Z,49.60
2018-11-01T16:20:11.101Z,49.70
2018-11-01T16:22:41.285Z,49.60
2018-11-01T16:25:09.988Z,49.60
2018-11-01T16:27:41.866Z,49.60
2018-11-01T16:30:10.641Z,49.70
2018-11-01T16:32:43.033Z,49.50
2018-11-01T16:35:11.844Z,49.50
2018-11-01T16:37:41.122Z,49.60
2018-11-01T16:40:10.676Z,49.60
2018-11-01T16:42:40.362Z,49.60
2018-11-01T16:45:10.987Z,49.60
2018-11-01T16:47:40.149Z,49.60
2018-11-01T16:50:09.147Z,49.60
2018-11-01T16:52:38.436Z,49.70
2018-11-01T16:55:07.225Z,49.70
2018-11-01T16:57:36.110Z,49.70
2018-11-01T17:00:06.597Z,49.60
2018-11-01T17:02:35.300Z,49.70
2018-11-01T17:05:03.878Z,49.70
2018-11-01T17:07:32.588Z,49.70
2018-11-01T17:10:01.589Z,49.70
2018-11-01T17:12:30.095Z,49.70
2018-11-01T17:14:58.705Z,49.70
2018-11-01T17:17:27.438Z,49.70
2018-11-01T17:19:57.161Z,49.60
2018-11-01T17:22:25.858Z,49.60
2018-11-01T17:24:54.532Z,50.20
2018-11-01T17:27:23.581Z,49.70
2018-11-01T17:29:52.409Z,49.70
2018-11-01T17:32:20.907Z,49.70
2018-11-01T17:34:49.935Z,49.70
2018-11-01T17:37:18.476Z,49.70
2018-11-01T17:39:47.160Z,49.70
2018-11-01T17:42:15.864Z,49.70
2018-11-01T17:44:45.393Z,49.70
2018-11-01T17:47:14.093Z,49.70
2018-11-01T17:49:42.650Z,49.70
2018-11-01T17:52:11.207Z,49.70
2018-11-01T17:54:41.394Z,49.70
2018-11-01T17:57:10.253Z,49.70
2018-11-01T17:59:39.821Z,49.70
2018-11-01T18:02:08.460Z,49.60
2018-11-01T18:04:36.790Z,49.70
2018-11-01T18:07:05.605Z,49.70
2018-11-01T18:09:34.355Z,49.70
2018-11-01T18:12:02.853Z,49.70
2018-11-01T18:14:31.714Z,49.70
2018-11-01T18:17:01.069Z,49.70
2018-11-01T18:19:29.627Z,49.70
2018-11-01T18:21:58.722Z,49.70
2018-11-01T18:24:28.294Z,49.70
2018-11-01T18:26:57.178Z,49.70
2018-11-01T18:29:26.137Z,49.80
2018-11-01T18:31:56.578Z,49.70
2018-11-01T18:34:26.433Z,49.70
2018-11-01T18:36:55.103Z,50.30
2018-11-01T18:39:24.150Z,49.80
2018-11-01T18:41:53.201Z,49.80
2018-11-01T18:44:22.536Z,49.80
2018-11-01T18:46:53.951Z,49.70
2018-11-01T18:49:22.388Z,49.80
2018-11-01T18:51:51.883Z,49.80
2018-11-01T18:54:21.324Z,49.80
2018-11-01T18:56:50.203Z,49.80
2018-11-01T18:59:18.807Z,49.80
2018-11-01T19:01:47.619Z,49.80
2018-11-01T19:04:16.430Z,49.70
2018-11-01T19:06:45.384Z,49.80
2018-11-01T19:09:14.884Z,49.80
2018-11-01T19:11:43.594Z,50.30
2018-11-01T19:14:12.286Z,49.80
2018-11-01T19:16:41.270Z,49.70
2018-11-01T19:19:09.770Z,49.70
2018-11-01T19:21:39.657Z,49.70
2018-11-01T19:24:08.081Z,49.70
2018-11-01T19:26:36.647Z,49.70
2018-11-01T19:29:05.485Z,49.70
2018-11-01T19:31:33.937Z,49.70
2018-11-01T19:34:02.825Z,49.70
2018-11-01T19:36:31.337Z,49.70
2018-11-01T19:38:59.843Z,49.60
2018-11-01T19:41:28.537Z,49.60
2018-11-01T19:43:57.044Z,49.60
2018-11-01T19:46:25.848Z,49.60
2018-11-01T19:48:54.418Z,49.60
2018-11-01T19:51:23.015Z,49.50
2018-11-01T19:53:51.492Z,50.00
2018-11-01T19:56:21.554Z,49.60
2018-11-01T19:58:50.166Z,49.50
2018-11-01T20:01:18.980Z,49.60
2018-11-01T20:03:47.651Z,49.60
2018-11-01T20:06:16.477Z,49.50
2018-11-01T20:08:45.335Z,49.50
2018-11-01T20:11:14.151Z,49.50
2018-11-01T20:13:45.896Z,49.50
2018-11-01T20:16:16.664Z,49.50
2018-11-01T20:18:47.241Z,49.50
2018-11-01T20:21:17.453Z,49.50
2018-11-01T20:23:47.816Z,49.40
2018-11-01T20:26:18.452Z,49.40
2018-11-01T20:28:49.156Z,49.40
2018-11-01T20:31:17.900Z,49.50
2018-11-01T20:33:46.477Z,49.40
2018-11-01T20:36:14.937Z,49.40
2018-11-01T20:38:43.441Z,49.40
2018-11-01T20:41:12.587Z,49.40
2018-11-01T20:43:41.434Z,49.40
2018-11-01T20:46:11.171Z,49.30
2018-11-01T20:48:39.879Z,49.30
2018-11-01T20:51:08.954Z,49.30
2018-11-01T20:53:37.686Z,49.30
2018-11-01T20:56:06.683Z,49.30
2018-11-01T20:58:35.237Z,49.30
2018-11-01T21:01:03.712Z,49.30
2018-11-01T21:03:32.258Z,49.30
2018-11-01T21:06:01.010Z,49.30
2018-11-01T21:08:29.563Z,49.30
2018-11-01T21:10:58.185Z,49.30
2018-11-01T21:13:27.100Z,49.20
2018-11-01T21:15:55.624Z,49.30
2018-11-01T21:18:24.223Z,49.30
2018-11-01T21:20:52.784Z,49.30
2018-11-01T21:23:21.374Z,49.40
2018-11-01T21:25:50.563Z,49.30
2018-11-01T21:28:19.158Z,49.30
2018-11-01T21:30:47.669Z,49.40
2018-11-01T21:33:16.266Z,49.30
2018-11-01T21:35:45.036Z,49.30
2018-11-01T21:38:13.485Z,49.30
2018-11-01T21:40:42.141Z,49.30
2018-11-01T21:43:10.758Z,49.30
2018-11-01T21:45:39.338Z,49.40
2018-11-01T21:48:07.867Z,49.40
2018-11-01T21:50:36.457Z,49.40
2018-11-01T21:53:05.145Z,49.40
2018-11-01T21:55:33.693Z,49.50
2018-11-01T21:58:02.439Z,49.50
2018-11-01T22:00:30.874Z,49.50
2018-11-01T22:02:59.506Z,49.40
2018-11-01T22:05:27.912Z,49.50
2018-11-01T22:07:56.758Z,49.50
2018-11-01T22:10:25.550Z,49.60
2018-11-01T22:12:54.284Z,49.50
2018-11-01T22:15:22.766Z,49.50
2018-11-01T22:17:51.245Z,49.50
2018-11-01T22:20:19.798Z,49.60
2018-11-01T22:22:48.260Z,49.60
2018-11-01T22:25:16.709Z,49.40
2018-11-01T22:27:45.404Z,49.50
2018-11-01T22:30:13.939Z,49.50
2018-11-01T22:32:43.130Z,49.50
2018-11-01T22:35:11.979Z,49.50
2018-11-01T22:37:41.763Z,49.50
2018-11-01T22:40:10.512Z,49.50
2018-11-01T22:42:39.411Z,49.50
2018-11-01T22:45:09.232Z,49.60
2018-11-01T22:47:37.797Z,49.60
2018-11-01T22:50:06.989Z,49.70
2018-11-01T22:52:35.436Z,49.70
2018-11-01T22:55:04.138Z,49.70
2018-11-01T22:57:32.877Z,49.70
2018-11-01T23:00:01.570Z,49.70
2018-11-01T23:02:30.045Z,49.80
2018-11-01T23:04:58.600Z,49.70
2018-11-01T23:07:27.298Z,49.70
2018-11-01T23:09:55.978Z,49.70
2018-11-01T23:12:24.580Z,49.80
2018-11-01T23:14:53.029Z,49.80
2018-11-01T23:17:21.745Z,49.70
2018-11-01T23:19:50.182Z,49.70
2018-11-01T23:22:18.697Z,49.70
2018-11-01T23:24:47.145Z,49.90
2018-11-01T23:27:15.615Z,49.70
2018-11-01T23:29:44.116Z,49.70
2018-11-01T23:32:12.611Z,49.60
2018-11-01T23:34:41.047Z,49.70
2018-11-01T23:37:14.715Z,49.70
2018-11-01T23:39:48.430Z,49.70
2018-11-01T23:42:22.468Z,49.70
2018-11-01T23:44:56.474Z,49.60
2018-11-01T23:47:30.178Z,49.70
2018-11-01T23:50:04.185Z,49.60
2018-11-01T23:52:33.084Z,49.70
2018-11-01T23:55:01.553Z,49.70
2018-11-01T23:57:30.046Z,49.70
2018-11-01T23:59:58.511Z,49.70
